EGHE/ISC METAR and TAF weather

Enter ICAO airport designator
Station Type Date Time Source
EGHE METAR 2022/12/09 16:20 UTC NOAA

EGHE 091620Z 03004KT 9999 FEW020 05/00 Q1010


Station Type Date Time Source
EGHE Decoded METAR 2022/12/09 16:20 UTC NOAA

Scilly, Saint Mary'S, United Kingdom (EGHE) 49-55N 006-18W 0M
Dec 09, 2022 - 11:20 AM EST / 2022.12.09 1620 UTC
Wind: from the NNE (030 degrees) at 5 MPH (4 KT):0
Visibility: greater than 7 mile(s):0
Sky conditions: mostly clear
Temperature: 41 F (5 C)
Dew Point: 32 F (0 C)
Relative Humidity: 70%
Pressure (altimeter): 29.83 in. Hg (1010 hPa)
ob: EGHE 091620Z 03004KT 9999 FEW020 05/00 Q1010
cycle: 16

Station Type Date Time Source
EGHE TAF UTC NOAA

Error!

Example: see airport list